Time;durP1;ratioP1;P1;durP2;ratioP2;P2;SDS_P1;SDS_P2;PMS_P1;PMS_P2;Temp;Humidity;BMP_temperature;BMP_pressure;BME280_temperature;BME280_humidity;BME280_pressure;Samples;Min_cycle;Max_cycle;Signal;HPM_P1;HPM_P2
2022/06/05 00:01:08;;;;;;;8.80;7.67;;;;;;;22.31;62.36;97490.00;5053816;28;20185;-70
2022/06/05 00:03:47;;;;;;;8.53;7.70;;;;;;;22.31;62.38;97490.00;5060711;28;20437;-70
2022/06/05 00:06:44;;;;;;;7.97;7.27;;;;;;;22.27;62.34;97484.28;5053383;28;20461;-70
2022/06/05 00:09:48;;;;;;;7.70;6.90;;;;;;;22.24;62.53;97477.53;5052895;28;20426;-72
2022/06/05 00:12:16;;;;;;;13.07;7.90;;;;;;;22.29;62.11;97470.72;5052041;28;20436;-70
2022/06/05 00:14:43;;;;;;;8.60;7.80;;;;;;;22.25;62.39;97463.16;5053282;28;20484;-70
2022/06/05 00:17:15;;;;;;;10.33;7.40;;;;;;;22.23;62.38;97462.56;5052733;28;20515;-71
2022/06/05 00:19:44;;;;;;;11.60;7.80;;;;;;;22.25;62.50;97462.31;5061116;28;20453;-71
2022/06/05 00:22:09;;;;;;;9.30;7.60;;;;;;;22.23;62.42;97465.22;5057360;28;20429;-70
2022/06/05 00:24:35;;;;;;;9.00;7.53;;;;;;;22.21;62.53;97461.16;5053242;28;20422;-70
2022/06/05 00:27:10;;;;;;;10.10;6.90;;;;;;;22.23;62.41;97451.88;5052369;28;20222;-71
2022/06/05 00:30:04;;;;;;;7.63;6.93;;;;;;;22.21;62.52;97445.94;5054065;28;20174;-70
2022/06/05 00:32:43;;;;;;;10.30;7.80;;;;;;;22.25;62.24;97452.47;5050522;28;20784;-71
2022/06/05 00:35:15;;;;;;;7.50;6.90;;;;;;;22.25;61.94;97457.81;5055552;28;20444;-70
2022/06/05 00:37:44;;;;;;;11.53;9.10;;;;;;;22.21;62.33;97443.28;5051295;28;20436;-70
2022/06/05 00:40:37;;;;;;;10.93;9.00;;;;;;;22.18;62.45;97446.38;5051689;28;20433;-71
2022/06/05 00:43:08;;;;;;;8.57;7.70;;;;;;;22.20;62.38;97454.19;5027509;28;20456;-72
2022/06/05 00:45:35;;;;;;;10.80;8.83;;;;;;;22.14;62.01;97447.88;5051325;28;20503;-71
2022/06/05 00:48:01;;;;;;;16.57;10.97;;;;;;;22.09;62.36;97442.38;5052117;28;20939;-70
2022/06/05 00:50:29;;;;;;;11.23;9.73;;;;;;;22.07;62.60;97436.44;5052524;28;20523;-71
2022/06/05 00:52:58;;;;;;;9.93;8.90;;;;;;;21.99;62.79;97434.88;5052720;28;20213;-70
2022/06/05 00:55:25;;;;;;;9.70;8.77;;;;;;;21.90;63.05;97438.88;5052395;28;20468;-71
2022/06/05 00:57:53;;;;;;;10.00;9.03;;;;;;;21.89;63.13;97424.72;5042960;28;20487;-70
2022/06/05 01:00:25;;;;;;;10.47;9.37;;;;;;;21.92;63.41;97429.63;5052387;28;20428;-71
2022/06/05 01:02:54;;;;;;;10.07;8.30;;;;;;;21.91;63.01;97436.00;5056594;28;20469;-71
2022/06/05 01:05:21;;;;;;;8.60;7.80;;;;;;;21.89;63.13;97437.22;5051923;28;20543;-70
2022/06/05 01:07:47;;;;;;;9.23;7.33;;;;;;;21.88;63.38;97441.75;5034152;28;20444;-71
2022/06/05 01:10:13;;;;;;;8.20;7.50;;;;;;;21.89;63.23;97445.22;5049150;28;20458;-70
2022/06/05 01:13:11;;;;;;;9.47;7.93;;;;;;;21.83;63.71;97459.47;5051283;28;20171;-70
2022/06/05 01:15:56;;;;;;;8.50;7.60;;;;;;;21.89;63.20;97467.41;5044500;28;20948;-71
2022/06/05 01:18:49;;;;;;;8.50;7.60;;;;;;;21.91;63.32;97473.34;5051389;28;20436;-72
2022/06/05 01:21:54;;;;;;;8.07;7.37;;;;;;;21.90;63.42;97469.03;5051974;28;20863;-70
2022/06/05 01:24:49;;;;;;;7.07;6.57;;;;;;;21.87;63.28;97466.81;5048318;28;20964;-71
2022/06/05 01:27:18;;;;;;;8.13;7.33;;;;;;;21.78;63.78;97466.25;5030657;28;20961;-70
2022/06/05 01:29:50;;;;;;;7.90;7.20;;;;;;;21.78;63.66;97468.94;5050720;28;20522;-71
2022/06/05 01:32:29;;;;;;;8.50;7.70;;;;;;;21.80;63.78;97474.03;5050531;28;20465;-71
2022/06/05 01:35:00;;;;;;;8.33;7.63;;;;;;;21.80;63.48;97474.03;5048248;28;20450;-70
2022/06/05 01:37:42;;;;;;;12.47;8.30;;;;;;;21.74;64.01;97469.59;5050202;28;20895;-70
2022/06/05 01:40:12;;;;;;;10.20;8.07;;;;;;;21.76;63.96;97468.31;5049940;28;20437;-71
2022/06/05 01:42:41;;;;;;;8.20;7.40;;;;;;;21.61;63.93;97476.66;5051802;28;20513;-72
2022/06/05 01:45:21;;;;;;;8.23;7.53;;;;;;;21.65;63.70;97486.91;5050242;28;20524;-71
2022/06/05 01:47:52;;;;;;;10.93;7.63;;;;;;;21.71;63.94;97481.50;5051683;28;20645;-70
2022/06/05 01:50:30;;;;;;;8.60;7.30;;;;;;;21.71;63.84;97452.19;5033284;28;20465;-70
2022/06/05 01:53:05;;;;;;;10.90;7.43;;;;;;;21.70;63.70;97442.53;5050399;28;20455;-70
2022/06/05 01:55:39;;;;;;;9.10;8.20;;;;;;;21.66;63.86;97446.66;5042588;28;20506;-70
2022/06/05 01:58:06;;;;;;;8.10;7.30;;;;;;;21.66;63.71;97436.00;5041381;28;20460;-70
2022/06/05 02:00:32;;;;;;;8.93;7.87;;;;;;;21.66;63.73;97425.34;5033598;28;20468;-71
2022/06/05 02:03:08;;;;;;;8.83;8.00;;;;;;;21.59;64.08;97424.56;5056956;28;20432;-70
2022/06/05 02:05:51;;;;;;;12.50;8.03;;;;;;;21.59;64.27;97428.06;5044189;28;20598;-70
2022/06/05 02:08:23;;;;;;;8.57;7.97;;;;;;;21.63;64.41;97439.94;5049477;28;20452;-72
2022/06/05 02:11:07;;;;;;;9.53;7.60;;;;;;;21.67;64.49;97434.16;5050053;28;20469;-70
2022/06/05 02:13:33;;;;;;;8.73;8.03;;;;;;;21.71;64.21;97438.84;5046312;28;21045;-72
2022/06/05 02:15:58;;;;;;;10.70;7.40;;;;;;;21.72;64.36;97434.31;5050299;28;20477;-70
2022/06/05 02:18:24;;;;;;;8.77;7.97;;;;;;;21.70;64.65;97415.03;5049224;28;20552;-71
2022/06/05 02:20:50;;;;;;;9.87;8.90;;;;;;;21.72;64.35;97397.81;5051109;28;20265;-70
2022/06/05 02:23:22;;;;;;;9.10;8.33;;;;;;;21.74;64.30;97378.91;5050739;28;20199;-71
2022/06/05 02:25:47;;;;;;;8.27;7.57;;;;;;;21.70;64.39;97356.38;5050807;28;20536;-71
2022/06/05 02:28:16;;;;;;;8.40;7.30;;;;;;;21.66;64.37;97334.66;5041152;28;20875;-70
2022/06/05 02:31:07;;;;;;;10.30;8.27;;;;;;;21.63;64.36;97313.75;5059275;28;20233;-69
2022/06/05 02:33:46;;;;;;;12.70;8.53;;;;;;;21.68;64.56;97292.59;5049293;28;20894;-70
2022/06/05 02:36:30;;;;;;;8.90;8.20;;;;;;;21.66;64.50;97277.88;5054931;28;20906;-70
2022/06/05 02:39:10;;;;;;;8.97;8.13;;;;;;;21.66;64.64;97276.00;5049867;28;20429;-71
2022/06/05 02:41:44;;;;;;;8.43;7.73;;;;;;;21.68;64.40;97273.94;5043921;28;20424;-71
2022/06/05 02:44:29;;;;;;;10.10;9.23;;;;;;;21.66;64.29;97273.34;5049495;28;20515;-71
2022/06/05 02:47:16;;;;;;;9.67;8.77;;;;;;;21.62;64.43;97275.63;5049023;28;20448;-71
2022/06/05 02:49:58;;;;;;;11.50;8.40;;;;;;;21.62;64.52;97299.63;5044304;28;20414;-71
2022/06/05 02:52:24;;;;;;;9.37;8.47;;;;;;;21.60;64.90;97309.69;5052399;28;20907;-71
2022/06/05 02:55:14;;;;;;;9.30;8.50;;;;;;;21.62;64.72;97318.28;5055811;28;20935;-71
2022/06/05 02:57:41;;;;;;;9.00;8.10;;;;;;;21.67;64.55;97320.28;5047059;28;20449;-71
2022/06/05 03:00:13;;;;;;;9.30;8.50;;;;;;;21.70;64.41;97319.03;5050729;28;20434;-71
2022/06/05 03:05:22;;;;;;;11.00;9.37;;;;;;;21.71;64.31;97318.00;5051117;28;20540;-71
2022/06/05 03:07:49;;;;;;;9.27;8.40;;;;;;;21.74;64.25;97317.56;5045000;28;21003;-72
2022/06/05 03:10:14;;;;;;;10.93;9.43;;;;;;;21.69;64.08;97325.41;5068366;28;20579;-71
2022/06/05 03:12:40;;;;;;;9.73;8.87;;;;;;;21.71;64.64;97310.00;5057361;28;20422;-71
2022/06/05 03:15:06;;;;;;;11.10;9.40;;;;;;;21.70;64.45;97295.88;5033060;28;20215;-71
2022/06/05 03:17:31;;;;;;;9.40;8.50;;;;;;;21.73;64.45;97278.59;5051167;28;20186;-70
2022/06/05 03:19:57;;;;;;;10.00;9.00;;;;;;;21.71;64.37;97268.16;5060910;28;20424;-71
2022/06/05 03:22:23;;;;;;;10.70;9.70;;;;;;;21.74;64.45;97272.22;5070125;28;20178;-72
2022/06/05 03:24:50;;;;;;;10.97;9.23;;;;;;;21.75;64.46;97263.19;5060237;28;20213;-71
2022/06/05 03:27:15;;;;;;;9.80;8.80;;;;;;;21.74;64.51;97253.56;5050346;28;20951;-70
2022/06/05 03:29:41;;;;;;;9.63;8.63;;;;;;;21.73;64.27;97266.09;5052455;28;20502;-70
2022/06/05 03:32:06;;;;;;;9.30;8.50;;;;;;;21.75;64.51;97264.00;5054627;28;20286;-71
2022/06/05 03:34:32;;;;;;;9.03;8.23;;;;;;;21.75;64.57;97263.19;5053811;28;20252;-71
2022/06/05 03:36:58;;;;;;;10.90;9.00;;;;;;;21.75;64.22;97268.53;5074271;28;20544;-71
2022/06/05 03:39:23;;;;;;;9.40;8.60;;;;;;;21.76;64.31;97275.50;5074438;28;20666;-71
2022/06/05 03:41:49;;;;;;;10.53;9.23;;;;;;;21.77;64.10;97285.91;5065004;28;20175;-72
2022/06/05 03:44:14;;;;;;;12.90;9.00;;;;;;;21.80;64.24;97300.66;5053893;28;20650;-71
2022/06/05 03:46:40;;;;;;;10.33;9.53;;;;;;;21.81;64.04;97317.50;5056576;28;20221;-72
2022/06/05 03:49:10;;;;;;;10.43;9.57;;;;;;;21.78;64.08;97326.75;5068832;28;20187;-72
2022/06/05 03:51:36;;;;;;;10.60;9.40;;;;;;;21.76;64.25;97342.16;5061825;28;20211;-70
2022/06/05 03:54:01;;;;;;;10.00;9.10;;;;;;;21.72;64.26;97376.47;5069950;28;20486;-72
2022/06/05 03:56:28;;;;;;;9.70;8.70;;;;;;;21.71;64.50;97395.34;5073078;28;20203;-73
2022/06/05 03:58:54;;;;;;;9.40;8.67;;;;;;;21.70;64.21;97391.03;5073424;28;20189;-72
2022/06/05 04:01:23;;;;;;;9.83;8.93;;;;;;;21.66;64.67;97379.19;5055873;28;20796;-72
2022/06/05 04:03:49;;;;;;;10.37;9.30;;;;;;;21.65;64.47;97382.91;5067784;28;20436;-69
2022/06/05 04:06:18;;;;;;;9.57;8.53;;;;;;;21.66;64.72;97371.19;5063728;28;20480;-71
2022/06/05 04:08:43;;;;;;;10.20;9.30;;;;;;;21.61;65.20;97364.66;5059145;28;20758;-71
2022/06/05 04:11:11;;;;;;;9.90;9.10;;;;;;;21.59;65.56;97352.56;5072389;28;20509;-71
2022/06/05 04:13:37;;;;;;;10.27;9.20;;;;;;;21.65;65.66;97324.22;5068432;28;20184;-70
2022/06/05 04:16:30;;;;;;;10.00;9.10;;;;;;;21.63;65.94;97300.44;5056687;28;20460;-71
2022/06/05 04:18:57;;;;;;;8.77;7.97;;;;;;;21.59;65.71;97300.06;5072039;28;20245;-70
2022/06/05 04:21:28;;;;;;;16.90;8.47;;;;;;;21.52;65.87;97309.97;5072572;28;20417;-72
2022/06/05 04:23:54;;;;;;;9.00;8.20;;;;;;;21.53;66.37;97302.75;5067042;28;20816;-71
2022/06/05 04:26:22;;;;;;;9.90;8.90;;;;;;;21.53;66.71;97308.94;5062690;28;20464;-72
2022/06/05 04:28:47;;;;;;;9.47;8.63;;;;;;;21.55;66.70;97319.38;5071876;28;20785;-71
2022/06/05 04:31:22;;;;;;;13.33;9.43;;;;;;;21.58;66.86;97351.72;5072765;28;20554;-71
2022/06/05 04:33:49;;;;;;;9.87;8.97;;;;;;;21.59;67.17;97353.41;5064959;28;20190;-71
2022/06/05 04:36:15;;;;;;;10.00;8.90;;;;;;;21.59;67.11;97355.22;5066354;28;20456;-72
2022/06/05 04:38:41;;;;;;;10.57;9.43;;;;;;;21.61;67.47;97354.00;5071528;28;20448;-71
2022/06/05 04:41:06;;;;;;;10.23;9.33;;;;;;;21.63;67.31;97354.59;5068920;28;20511;-71
2022/06/05 04:43:32;;;;;;;10.00;9.20;;;;;;;21.66;67.56;97365.88;5065367;28;20182;-70
2022/06/05 04:45:58;;;;;;;10.50;9.60;;;;;;;21.68;67.45;97382.44;5064475;28;20203;-69
2022/06/05 04:48:23;;;;;;;10.03;9.23;;;;;;;21.69;67.41;97394.72;5069673;28;20182;-70
2022/06/05 04:50:49;;;;;;;11.67;9.33;;;;;;;21.68;67.73;97387.75;5057327;28;20557;-71
2022/06/05 04:53:14;;;;;;;10.10;9.10;;;;;;;21.62;67.88;97382.28;5070797;28;20554;-70
2022/06/05 04:55:40;;;;;;;10.57;9.47;;;;;;;21.63;68.09;97394.59;5072135;28;20285;-70
2022/06/05 04:58:05;;;;;;;10.70;9.80;;;;;;;21.62;67.97;97411.63;5065249;28;20179;-70
2022/06/05 05:00:31;;;;;;;11.43;10.30;;;;;;;21.67;67.67;97428.84;5064841;28;20186;-70
2022/06/05 05:02:56;;;;;;;10.93;9.83;;;;;;;21.62;67.43;97424.97;5065537;28;20584;-70
2022/06/05 05:05:22;;;;;;;12.43;11.10;;;;;;;21.58;67.51;97426.38;5063785;28;20285;-70
2022/06/05 05:07:47;;;;;;;11.53;10.53;;;;;;;21.57;68.01;97429.28;5065855;28;20193;-71
2022/06/05 05:10:13;;;;;;;12.13;10.90;;;;;;;21.56;68.58;97440.97;5063647;28;20272;-70
2022/06/05 05:12:40;;;;;;;11.60;10.50;;;;;;;21.57;68.80;97453.28;5065485;28;20183;-71
2022/06/05 05:15:08;;;;;;;11.90;10.73;;;;;;;21.51;68.37;97462.97;5071623;28;20519;-72
2022/06/05 05:17:33;;;;;;;13.00;10.90;;;;;;;21.48;68.84;97464.19;5040124;28;20547;-70
2022/06/05 05:19:59;;;;;;;12.23;10.97;;;;;;;21.50;68.88;97488.00;5072039;28;20452;-70
2022/06/05 05:22:25;;;;;;;13.37;11.53;;;;;;;21.45;69.09;97487.81;5071199;28;20186;-71
2022/06/05 05:24:50;;;;;;;13.03;11.40;;;;;;;21.43;69.51;97495.19;5064231;28;20663;-72
2022/06/05 05:27:16;;;;;;;13.90;10.87;;;;;;;21.39;69.68;97484.16;5068261;28;20448;-70
2022/06/05 05:29:41;;;;;;;16.70;10.97;;;;;;;21.33;70.21;97472.50;5071987;28;20700;-71
2022/06/05 05:32:08;;;;;;;12.37;11.17;;;;;;;21.32;70.29;97452.22;5071702;28;20213;-72
2022/06/05 05:34:34;;;;;;;13.27;11.97;;;;;;;21.35;70.40;97443.00;5071445;28;20186;-71
2022/06/05 05:37:00;;;;;;;14.63;11.70;;;;;;;21.36;70.20;97441.13;5066557;28;20451;-70
2022/06/05 05:42:11;;;;;;;15.47;12.60;;;;;;;21.36;71.10;97457.91;5071650;28;20185;-72
2022/06/05 05:44:48;;;;;;;13.00;11.80;;;;;;;21.25;71.08;97478.09;5071489;28;20499;-70
2022/06/05 05:47:19;;;;;;;14.70;12.03;;;;;;;21.15;71.59;97504.41;5052818;28;20456;-70
2022/06/05 05:49:45;;;;;;;13.20;11.90;;;;;;;21.23;71.37;97525.47;5070801;28;20920;-70
2022/06/05 05:52:11;;;;;;;14.83;13.13;;;;;;;21.24;71.42;97529.75;5062434;28;20471;-72
2022/06/05 05:54:37;;;;;;;19.10;12.00;;;;;;;21.24;71.41;97539.59;5070354;28;20186;-71
2022/06/05 05:57:04;;;;;;;13.40;12.00;;;;;;;21.28;71.36;97546.13;5066158;28;20464;-71
2022/06/05 05:59:29;;;;;;;14.00;12.00;;;;;;;21.24;71.77;97551.09;5071542;28;20839;-71
2022/06/05 06:01:54;;;;;;;13.60;12.17;;;;;;;21.22;71.98;97507.03;5071446;28;20511;-70
2022/06/05 06:04:20;;;;;;;16.13;12.47;;;;;;;21.16;72.02;97453.56;5058199;28;20206;-70
2022/06/05 06:06:49;;;;;;;12.73;10.53;;;;;;;20.86;73.03;97405.38;5059843;28;20356;-70
2022/06/05 06:09:15;;;;;;;14.40;12.43;;;;;;;20.97;72.63;97396.69;5071318;28;20191;-71
2022/06/05 06:11:40;;;;;;;12.30;11.10;;;;;;;20.90;73.11;97411.91;5070033;28;20585;-70
2022/06/05 06:14:06;;;;;;;17.80;11.17;;;;;;;20.88;72.54;97424.63;5070876;28;20931;-71
2022/06/05 06:16:32;;;;;;;11.90;10.90;;;;;;;20.69;73.13;97395.16;5070360;28;20568;-72
2022/06/05 06:18:57;;;;;;;14.63;10.00;;;;;;;20.53;73.82;97369.06;5071319;28;20227;-70
2022/06/05 06:21:23;;;;;;;10.40;9.30;;;;;;;20.61;73.40;97344.84;5070791;28;20179;-70
2022/06/05 06:23:49;;;;;;;9.80;8.30;;;;;;;20.60;73.17;97331.75;5071053;28;20178;-70
2022/06/05 06:26:15;;;;;;;9.20;8.30;;;;;;;20.54;73.60;97306.81;5066329;28;20711;-70
2022/06/05 06:28:41;;;;;;;13.00;7.80;;;;;;;20.53;73.38;97279.34;5070747;28;20182;-71
2022/06/05 06:31:09;;;;;;;8.70;7.83;;;;;;;20.50;73.37;97269.13;5070585;28;20268;-71
2022/06/05 06:33:34;;;;;;;9.27;6.47;;;;;;;20.39;73.21;97220.06;5071064;28;20178;-70
2022/06/05 06:36:01;;;;;;;7.17;5.50;;;;;;;20.53;72.53;97243.94;5066744;28;20997;-70
2022/06/05 06:38:27;;;;;;;12.10;5.67;;;;;;;20.60;72.50;97231.38;5054426;28;20269;-71
2022/06/05 06:41:20;;;;;;;8.50;4.83;;;;;;;20.62;71.46;97223.19;5069294;28;20516;-70
2022/06/05 06:43:47;;;;;;;5.30;4.10;;;;;;;20.67;70.64;97247.31;5067671;28;20194;-70
2022/06/05 06:46:13;;;;;;;5.33;4.10;;;;;;;20.72;70.17;97234.97;5070920;28;20813;-71
2022/06/05 06:48:38;;;;;;;11.33;4.60;;;;;;;20.80;70.02;97227.78;5070548;28;20828;-70
2022/06/05 06:51:05;;;;;;;6.00;4.27;;;;;;;20.87;70.39;97209.91;5061792;28;20503;-71
2022/06/05 06:53:32;;;;;;;6.90;4.83;;;;;;;20.89;70.30;97189.19;5070915;28;20247;-70
2022/06/05 06:55:58;;;;;;;6.60;4.47;;;;;;;20.92;70.56;97220.72;5066156;28;20466;-70
2022/06/05 06:58:24;;;;;;;5.37;4.87;;;;;;;20.93;71.10;97213.53;5051958;28;20796;-71
2022/06/05 07:00:50;;;;;;;7.07;5.27;;;;;;;20.92;71.18;97276.63;5069620;28;20232;-70
2022/06/05 07:03:15;;;;;;;11.93;4.90;;;;;;;20.91;71.28;97170.34;5064211;28;20946;-71
2022/06/05 07:05:41;;;;;;;7.77;5.30;;;;;;;20.93;71.78;97190.38;5074775;28;20206;-71
2022/06/05 07:08:08;;;;;;;5.57;4.90;;;;;;;20.93;71.69;97226.88;5061777;28;20286;-70
2022/06/05 07:10:34;;;;;;;6.10;5.50;;;;;;;20.87;71.75;97242.66;5066213;28;20692;-70
2022/06/05 07:13:00;;;;;;;6.07;5.47;;;;;;;20.85;72.13;97235.94;5073213;28;20456;-71
2022/06/05 07:15:26;;;;;;;7.83;6.93;;;;;;;20.82;72.20;97236.38;5074237;28;20294;-70
2022/06/05 07:17:52;;;;;;;9.93;6.40;;;;;;;20.80;72.38;97241.91;5074272;28;20190;-70
2022/06/05 07:20:18;;;;;;;9.43;5.50;;;;;;;20.83;72.53;97227.34;5074447;28;20599;-69
2022/06/05 07:22:43;;;;;;;7.40;5.23;;;;;;;20.86;72.43;97258.88;5074405;28;20179;-71
2022/06/05 07:25:09;;;;;;;7.70;5.40;;;;;;;20.80;71.79;97251.75;5057714;28;20646;-70
2022/06/05 07:27:34;;;;;;;5.07;4.50;;;;;;;20.79;71.41;97245.63;5074027;28;20285;-71
2022/06/05 07:30:00;;;;;;;8.87;3.33;;;;;;;20.77;70.44;97247.69;5074194;28;20204;-70
2022/06/05 07:32:25;;;;;;;11.20;4.33;;;;;;;20.83;70.39;97235.34;5073957;28;20767;-70
2022/06/05 07:34:51;;;;;;;5.53;4.23;;;;;;;20.93;70.09;97240.97;5071269;28;20273;-71
2022/06/05 07:37:17;;;;;;;7.13;4.20;;;;;;;20.94;70.41;97237.28;5072198;28;20214;-70
2022/06/05 07:39:43;;;;;;;7.37;4.07;;;;;;;20.94;70.82;97215.97;5073951;28;20638;-70
2022/06/05 07:42:09;;;;;;;8.73;4.10;;;;;;;20.95;70.63;97232.78;5073740;28;20705;-70
2022/06/05 07:44:36;;;;;;;5.73;3.80;;;;;;;20.90;70.88;97236.13;5074061;28;20448;-70
2022/06/05 07:47:05;;;;;;;8.30;3.60;;;;;;;20.87;69.92;97247.19;5073408;28;20599;-72
2022/06/05 07:49:31;;;;;;;8.03;4.00;;;;;;;20.92;70.14;97244.69;5073479;28;20420;-70
2022/06/05 07:54:40;;;;;;;9.83;3.77;;;;;;;21.11;69.94;97266.06;5073854;28;20178;-70
2022/06/05 07:57:08;;;;;;;6.37;4.03;;;;;;;21.16;69.61;97258.22;5067652;28;20609;-70
2022/06/05 07:59:36;;;;;;;4.63;3.67;;;;;;;21.22;69.44;97276.00;5074004;28;20186;-70
2022/06/05 08:02:05;;;;;;;7.03;3.70;;;;;;;21.25;69.33;97274.72;5073116;28;20444;-71
2022/06/05 08:04:32;;;;;;;4.80;3.80;;;;;;;21.26;69.39;97263.88;5066197;28;20420;-71
2022/06/05 08:06:59;;;;;;;4.50;3.60;;;;;;;21.24;69.19;97260.59;5073151;28;20479;-69
2022/06/05 08:09:25;;;;;;;5.70;3.40;;;;;;;21.26;69.11;97261.19;5072954;28;20432;-69
2022/06/05 08:11:51;;;;;;;3.53;3.00;;;;;;;21.09;69.73;97254.78;5073670;28;20982;-73
2022/06/05 08:14:16;;;;;;;7.17;3.60;;;;;;;20.96;69.88;97264.53;5072843;28;20433;-70
2022/06/05 08:16:46;;;;;;;5.33;3.67;;;;;;;21.16;69.35;97261.69;5072888;28;20198;-71
2022/06/05 08:19:20;;;;;;;6.60;3.90;;;;;;;21.31;69.49;97261.34;5072818;28;20193;-71
2022/06/05 08:21:47;;;;;;;5.87;3.40;;;;;;;21.40;69.85;97263.75;5073980;28;20503;-71
2022/06/05 08:24:12;;;;;;;5.30;3.20;;;;;;;21.56;69.13;97265.00;5072563;28;20474;-70
2022/06/05 08:26:38;;;;;;;4.50;3.00;;;;;;;21.71;68.85;97272.66;5050625;28;20775;-70
2022/06/05 08:29:04;;;;;;;3.63;3.23;;;;;;;21.81;68.40;97267.63;5071475;28;20196;-70
2022/06/05 08:31:30;;;;;;;4.13;3.43;;;;;;;21.98;68.23;97270.50;5069335;28;20198;-69
2022/06/05 08:33:57;;;;;;;4.10;3.10;;;;;;;22.13;67.82;97264.78;5068496;28;20425;-69
2022/06/05 08:36:23;;;;;;;5.87;2.57;;;;;;;22.11;67.01;97261.53;5068128;28;20810;-71
2022/06/05 08:41:42;;;;;;;2.60;2.40;;;;;;;22.39;66.26;97252.13;5065369;28;20177;-70
2022/06/05 08:44:28;;;;;;;5.40;3.03;;;;;;;22.52;65.90;97241.28;5071373;28;20523;-70
2022/06/05 08:47:01;;;;;;;3.73;2.47;;;;;;;22.76;66.08;97245.84;5072224;28;20444;-70
2022/06/05 08:49:34;;;;;;;2.80;2.50;;;;;;;23.01;65.86;97256.34;5056496;28;20423;-70
2022/06/05 08:52:03;;;;;;;7.87;2.50;;;;;;;23.19;65.19;97257.28;5046456;28;20495;-70
2022/06/05 08:54:40;;;;;;;3.90;2.20;;;;;;;23.30;63.66;97259.16;5054227;28;20416;-71
2022/06/05 08:57:16;;;;;;;4.87;1.90;;;;;;;23.60;62.58;97260.88;5066610;28;20460;-71
2022/06/05 09:00:19;;;;;;;4.13;1.73;;;;;;;23.89;60.50;97247.56;5071531;28;20424;-72
2022/06/05 09:02:54;;;;;;;3.33;2.33;;;;;;;24.07;60.90;97252.75;5063570;28;20428;-72
2022/06/05 09:05:24;;;;;;;3.63;2.07;;;;;;;24.01;59.70;97255.56;5072123;28;20447;-70
2022/06/05 09:07:53;;;;;;;7.20;2.27;;;;;;;23.88;60.34;97246.72;5070931;28;20429;-71
2022/06/05 09:10:33;;;;;;;3.43;1.70;;;;;;;24.17;60.19;97244.09;5070674;28;20447;-71
2022/06/05 09:13:04;;;;;;;3.77;2.13;;;;;;;24.45;60.31;97249.66;5070799;28;20428;-70
2022/06/05 09:15:35;;;;;;;3.37;1.90;;;;;;;24.43;60.17;97249.13;5055160;28;20449;-70
2022/06/05 09:18:02;;;;;;;3.60;2.27;;;;;;;24.44;59.59;97258.78;5070638;28;20444;-70
2022/06/05 09:20:48;;;;;;;4.53;2.50;;;;;;;24.37;59.63;97266.97;5070387;28;20443;-71
2022/06/05 09:23:21;;;;;;;4.60;2.00;;;;;;;24.40;59.11;97263.78;5071981;28;20494;-70
2022/06/05 09:25:53;;;;;;;3.90;1.70;;;;;;;24.38;59.39;97276.63;5067346;28;20809;-70
2022/06/05 09:28:32;;;;;;;3.20;1.70;;;;;;;24.29;59.22;97283.41;5070875;28;20503;-71
2022/06/05 09:31:13;;;;;;;3.50;1.30;;;;;;;24.38;59.17;97272.06;5071813;28;20456;-71
2022/06/05 09:33:39;;;;;;;2.33;1.50;;;;;;;24.40;58.63;97269.16;5070475;28;20432;-70
2022/06/05 09:36:08;;;;;;;1.70;1.30;;;;;;;24.61;58.00;97262.28;5067089;28;20465;-71
2022/06/05 09:38:59;;;;;;;2.40;1.47;;;;;;;24.73;56.98;97274.84;5069946;28;20470;-71
2022/06/05 09:41:24;;;;;;;1.40;1.30;;;;;;;24.61;56.58;97297.13;5066316;28;20963;-70
2022/06/05 09:44:11;;;;;;;4.53;1.20;;;;;;;24.62;57.40;97287.22;5065323;28;20435;-71
2022/06/05 09:46:59;;;;;;;2.30;1.47;;;;;;;24.64;58.04;97296.63;5071403;28;20226;-71
2022/06/05 09:49:25;;;;;;;2.77;1.40;;;;;;;24.77;57.70;97289.38;5063024;28;20440;-71
2022/06/05 09:51:50;;;;;;;3.80;1.50;;;;;;;24.91;57.77;97305.94;5063197;28;20464;-71
2022/06/05 09:54:24;;;;;;;1.80;1.33;;;;;;;25.04;57.46;97304.84;5071244;28;20194;-71
2022/06/05 09:59:54;;;;;;;4.60;1.60;;;;;;;25.44;56.63;97307.34;5071495;28;20420;-70
2022/06/05 10:02:21;;;;;;;1.73;1.43;;;;;;;25.60;56.23;97307.56;5068531;28;20969;-71
2022/06/05 10:04:47;;;;;;;2.33;1.53;;;;;;;25.91;56.57;97316.84;5065629;28;20504;-71
2022/06/05 10:07:34;;;;;;;2.37;1.40;;;;;;;25.97;56.00;97316.91;5069385;28;20456;-70
2022/06/05 10:10:16;;;;;;;3.80;1.60;;;;;;;25.83;55.49;97322.66;5071307;28;20433;-71
2022/06/05 10:12:54;;;;;;;3.13;1.30;;;;;;;26.07;55.10;97325.09;5069853;28;20436;-71
2022/06/05 10:15:27;;;;;;;2.50;1.57;;;;;;;26.16;55.09;97331.69;5069548;28;20796;-71
2022/06/05 10:18:01;;;;;;;4.43;1.83;;;;;;;26.00;55.94;97327.16;5069571;28;20780;-73
2022/06/05 10:20:45;;;;;;;2.47;1.50;;;;;;;25.88;55.36;97333.44;5069732;28;20532;-70
2022/06/05 10:23:22;;;;;;;5.90;1.57;;;;;;;25.42;56.26;97347.00;5070588;28;20429;-71
2022/06/05 10:26:13;;;;;;;3.10;1.50;;;;;;;25.25;57.07;97332.78;5066549;28;20961;-71
2022/06/05 10:28:40;;;;;;;5.80;1.77;;;;;;;25.25;58.26;97333.59;5070869;28;20424;-70
2022/06/05 10:31:28;;;;;;;3.77;1.90;;;;;;;25.15;59.04;97344.16;5070472;28;20471;-72
2022/06/05 10:34:14;;;;;;;2.90;1.80;;;;;;;25.06;60.90;97337.56;5070477;28;20486;-71
2022/06/05 10:36:58;;;;;;;3.07;2.00;;;;;;;24.90;61.05;97331.13;5065207;28;20455;-71
2022/06/05 10:39:28;;;;;;;5.07;2.77;;;;;;;24.50;61.28;97330.97;5052455;28;20417;-71
2022/06/05 10:41:54;;;;;;;5.57;2.73;;;;;;;24.56;62.06;97331.88;5069880;28;20435;-71
2022/06/05 10:44:28;;;;;;;12.37;3.53;;;;;;;24.46;62.78;97310.22;5070518;28;20428;-71
2022/06/05 10:47:12;;;;;;;4.97;3.30;;;;;;;24.30;64.13;97301.91;5069458;28;20578;-71
2022/06/05 10:49:39;;;;;;;6.40;3.60;;;;;;;23.91;65.01;97315.84;5069388;28;20843;-70
2022/06/05 10:52:19;;;;;;;6.90;3.47;;;;;;;23.76;65.75;97324.34;5062032;28;20471;-70
2022/06/05 10:54:54;;;;;;;4.07;3.50;;;;;;;23.77;65.89;97309.94;5068504;28;20463;-72
2022/06/05 10:57:25;;;;;;;6.13;4.00;;;;;;;23.73;65.79;97303.41;5067173;28;20542;-70
2022/06/05 11:00:21;;;;;;;7.50;3.63;;;;;;;23.52;66.63;97285.31;5070788;28;21017;-71
2022/06/05 11:02:47;;;;;;;8.80;4.00;;;;;;;23.60;66.77;97298.31;5064054;28;20437;-70
2022/06/05 11:05:32;;;;;;;6.70;4.00;;;;;;;23.38;66.99;97285.53;5055536;28;20566;-70
2022/06/05 11:08:14;;;;;;;4.47;3.97;;;;;;;23.45;66.85;97280.88;5069122;28;20432;-70
2022/06/05 11:14:09;;;;;;;7.37;3.97;;;;;;;23.30;67.37;97267.19;5054714;28;20928;-70
2022/06/05 11:16:55;;;;;;;5.80;3.70;;;;;;;23.30;66.97;97264.53;5070247;28;20432;-71
2022/06/05 11:19:32;;;;;;;10.37;4.30;;;;;;;23.33;67.19;97268.56;5069025;28;20432;-71
2022/06/05 11:22:00;;;;;;;7.37;4.50;;;;;;;23.28;67.96;97290.66;5070829;28;20420;-71
2022/06/05 11:24:43;;;;;;;6.23;4.17;;;;;;;23.30;67.33;97291.25;5069529;28;20539;-71
2022/06/05 11:27:19;;;;;;;7.97;3.70;;;;;;;23.14;67.23;97293.53;5063829;28;20451;-71
2022/06/05 11:30:24;;;;;;;5.30;3.90;;;;;;;23.24;67.93;97294.84;5040955;28;20432;-71
2022/06/05 11:33:26;;;;;;;4.80;3.47;;;;;;;23.17;66.74;97285.06;5070538;28;20983;-71
2022/06/05 11:36:13;;;;;;;7.67;3.30;;;;;;;23.29;66.54;97306.47;5036750;28;20498;-71
2022/06/05 11:39:23;;;;;;;4.77;3.40;;;;;;;23.38;66.71;97319.47;5056404;28;20427;-72
2022/06/05 11:42:05;;;;;;;7.63;3.10;;;;;;;23.51;66.51;97321.13;5069217;28;20950;-71
2022/06/05 11:44:47;;;;;;;6.73;3.30;;;;;;;23.67;66.11;97320.41;5069193;28;20428;-71
2022/06/05 11:47:31;;;;;;;3.90;3.00;;;;;;;23.94;66.41;97319.91;5069463;28;20444;-71
2022/06/05 11:50:05;;;;;;;11.03;4.63;;;;;;;24.19;65.76;97316.97;5069817;28;20435;-71
2022/06/05 11:52:41;;;;;;;5.63;3.00;;;;;;;24.46;63.58;97315.56;5058383;28;20476;-71
2022/06/05 11:55:12;;;;;;;5.13;3.10;;;;;;;24.71;62.05;97312.59;5069077;28;20430;-71
2022/06/05 11:57:41;;;;;;;4.17;2.80;;;;;;;24.93;59.50;97315.38;5067466;28;20424;-71
2022/06/05 12:00:09;;;;;;;2.40;2.10;;;;;;;25.13;58.42;97314.09;5063457;28;20452;-72
2022/06/05 12:03:05;;;;;;;5.13;2.20;;;;;;;25.44;58.37;97309.22;5062709;28;20968;-71
2022/06/05 12:05:40;;;;;;;4.73;2.30;;;;;;;25.72;56.75;97296.72;5056903;28;20433;-71
2022/06/05 12:08:19;;;;;;;4.60;2.20;;;;;;;25.87;54.55;97296.13;5072296;28;20436;-70